Time;durP1;ratioP1;P1;durP2;ratioP2;P2;SDS_P1;SDS_P2;PMS_P1;PMS_P2;Temp;Humidity;BMP_temperature;BMP_pressure;BME280_temperature;BME280_humidity;BME280_pressure;Samples;Min_cycle;Max_cycle;Signal;HPM_P1;HPM_P2
2022/09/08 00:00:31;;;;;;;8.03;4.30;;;19.30;91.60;;;;;;5056355;28;20238;-64
2022/09/08 00:03:01;;;;;;;7.93;4.20;;;19.30;91.50;;;;;;5055939;28;20262;-64
2022/09/08 00:05:31;;;;;;;6.07;4.57;;;19.30;91.40;;;;;;5056356;28;20690;-64
2022/09/08 00:07:59;;;;;;;8.40;4.23;;;19.30;91.50;;;;;;5048342;28;20209;-64
2022/09/08 00:10:25;;;;;;;6.10;4.10;;;19.20;91.50;;;;;;5054313;28;20208;-64
2022/09/08 00:12:51;;;;;;;5.33;3.70;;;19.20;91.50;;;;;;5048167;28;20266;-64
2022/09/08 00:15:17;;;;;;;4.63;3.90;;;19.20;91.50;;;;;;5057469;28;20602;-65
2022/09/08 00:17:42;;;;;;;5.13;4.27;;;19.10;91.60;;;;;;5061609;28;20255;-65
2022/09/08 00:20:09;;;;;;;6.00;3.83;;;19.10;91.80;;;;;;5059995;28;20210;-65
2022/09/08 00:22:35;;;;;;;5.00;4.37;;;19.00;91.80;;;;;;5057759;28;20296;-65
2022/09/08 00:25:01;;;;;;;10.60;3.60;;;18.90;92.00;;;;;;5057078;28;20292;-64
2022/09/08 00:27:26;;;;;;;7.50;4.33;;;18.80;92.30;;;;;;5045918;28;20214;-64
2022/09/08 00:29:52;;;;;;;4.90;3.87;;;18.70;92.40;;;;;;5046857;28;20661;-64
2022/09/08 00:32:20;;;;;;;8.50;4.40;;;18.70;92.50;;;;;;5051986;28;20747;-65
2022/09/08 00:34:46;;;;;;;6.43;3.63;;;18.70;92.20;;;;;;5055617;28;20194;-69
2022/09/08 00:37:11;;;;;;;5.37;3.63;;;18.70;92.10;;;;;;5054824;28;20679;-64
2022/09/08 00:39:37;;;;;;;4.30;3.80;;;18.70;92.20;;;;;;5058613;28;20196;-65
2022/09/08 00:42:03;;;;;;;4.63;4.23;;;18.70;92.30;;;;;;5058083;28;20296;-63
2022/09/08 00:44:49;;;;;;;4.67;3.43;;;18.70;92.10;;;;;;5052829;28;20187;-64
2022/09/08 00:47:23;;;;;;;4.93;3.70;;;18.80;92.00;;;;;;5058051;28;20259;-64
2022/09/08 00:50:06;;;;;;;5.83;3.80;;;18.80;91.90;;;;;;5056620;28;20244;-64
2022/09/08 00:52:44;;;;;;;3.77;3.40;;;18.80;91.80;;;;;;5060850;28;20201;-64
2022/09/08 00:55:10;;;;;;;5.53;3.80;;;18.70;91.70;;;;;;5055718;28;20776;-64
2022/09/08 00:57:37;;;;;;;8.57;3.70;;;18.70;92.00;;;;;;5057494;28;20204;-64
2022/09/08 01:00:07;;;;;;;8.43;4.07;;;18.70;91.80;;;;;;5062769;28;20755;-63
2022/09/08 01:02:33;;;;;;;4.20;3.67;;;18.70;91.80;;;;;;5055886;28;20281;-64
2022/09/08 01:05:04;;;;;;;6.57;4.00;;;18.60;91.80;;;;;;5056655;28;20280;-64
2022/09/08 01:13:46;;;;;;;6.30;4.00;;;18.60;91.70;;;;;;5052411;28;20261;-64
2022/09/08 01:16:12;;;;;;;7.50;4.13;;;18.60;91.50;;;;;;5061966;28;20198;-65
2022/09/08 01:18:38;;;;;;;5.33;3.37;;;18.60;91.30;;;;;;5046446;28;20739;-63
2022/09/08 01:21:23;;;;;;;4.40;3.40;;;18.70;91.10;;;;;;5063304;28;20231;-64
2022/09/08 01:24:19;;;;;;;5.17;3.10;;;18.60;91.10;;;;;;5056166;28;20674;-64
2022/09/08 01:27:06;;;;;;;8.10;4.50;;;18.60;91.10;;;;;;5054165;28;20214;-65
2022/09/08 01:29:33;;;;;;;5.97;3.73;;;18.60;91.00;;;;;;5045306;28;20228;-65
2022/09/08 01:31:58;;;;;;;4.00;3.60;;;18.60;91.20;;;;;;5058157;28;20200;-64
2022/09/08 01:34:24;;;;;;;8.10;3.77;;;18.60;91.00;;;;;;5046968;28;20186;-65
2022/09/08 01:36:49;;;;;;;4.63;4.07;;;18.60;91.00;;;;;;5055113;28;20191;-65
2022/09/08 01:39:15;;;;;;;4.50;3.73;;;18.60;91.00;;;;;;5056573;28;20225;-65
2022/09/08 01:41:40;;;;;;;5.77;3.53;;;18.60;91.30;;;;;;5057128;28;20197;-64
2022/09/08 01:44:06;;;;;;;4.47;3.93;;;18.50;91.80;;;;;;5053804;28;20177;-64
2022/09/08 01:46:31;;;;;;;7.97;3.63;;;18.50;91.80;;;;;;5049487;28;20279;-63
2022/09/08 01:48:57;;;;;;;6.43;4.00;;;18.50;91.80;;;;;;5056478;28;20200;-64
2022/09/08 01:51:23;;;;;;;6.30;3.97;;;18.50;91.90;;;;;;5052087;28;20220;-64
2022/09/08 01:53:49;;;;;;;4.57;3.63;;;18.50;91.80;;;;;;5054888;28;20296;-63
2022/09/08 01:56:14;;;;;;;6.93;2.97;;;18.50;91.60;;;;;;5053264;28;20189;-64
2022/09/08 01:58:40;;;;;;;4.87;3.50;;;18.50;91.60;;;;;;5057458;28;20247;-64
2022/09/08 02:01:06;;;;;;;5.70;3.83;;;18.50;91.40;;;;;;5058338;28;20666;-64
2022/09/08 02:03:32;;;;;;;7.50;3.50;;;18.50;91.50;;;;;;5054478;28;20198;-64
2022/09/08 02:06:01;;;;;;;3.93;3.40;;;18.50;91.40;;;;;;5056874;28;20243;-64
2022/09/08 02:08:27;;;;;;;5.63;3.33;;;18.50;91.40;;;;;;5050499;28;20276;-64
2022/09/08 02:10:54;;;;;;;3.43;3.13;;;18.40;91.10;;;;;;5056754;28;20256;-63
2022/09/08 02:13:20;;;;;;;4.23;3.33;;;18.40;91.20;;;;;;5058716;28;20676;-63
2022/09/08 02:15:45;;;;;;;6.93;3.30;;;18.40;91.40;;;;;;5052101;28;20692;-64
2022/09/08 02:18:11;;;;;;;6.50;3.60;;;18.30;91.10;;;;;;5062990;28;20254;-64
2022/09/08 02:20:36;;;;;;;6.43;3.10;;;18.30;91.20;;;;;;5061925;28;20238;-64
2022/09/08 02:23:02;;;;;;;4.37;3.40;;;18.30;91.00;;;;;;5052184;28;20286;-64
2022/09/08 02:25:27;;;;;;;3.30;2.87;;;18.20;90.80;;;;;;5054394;28;20564;-64
2022/09/08 02:27:53;;;;;;;5.87;3.73;;;18.20;90.70;;;;;;5054318;28;20249;-63
2022/09/08 02:30:19;;;;;;;4.97;3.33;;;18.10;91.20;;;;;;5061870;28;20223;-64
2022/09/08 02:32:45;;;;;;;6.60;3.07;;;18.20;91.30;;;;;;5063658;28;20673;-64
2022/09/08 02:35:10;;;;;;;6.23;3.47;;;18.10;90.70;;;;;;5057212;28;20251;-63
2022/09/08 02:37:36;;;;;;;5.57;3.53;;;18.10;90.70;;;;;;5050790;28;20200;-63
2022/09/08 02:40:03;;;;;;;3.67;2.70;;;18.10;90.50;;;;;;5048531;28;20249;-64
2022/09/08 02:42:29;;;;;;;4.07;3.57;;;18.00;90.50;;;;;;5052228;28;20799;-66
2022/09/08 02:44:54;;;;;;;3.60;3.00;;;18.00;90.70;;;;;;5059748;28;20246;-64
2022/09/08 02:47:21;;;;;;;4.03;3.63;;;18.00;90.80;;;;;;5055392;28;20210;-64
2022/09/08 02:49:46;;;;;;;6.63;3.57;;;17.90;90.50;;;;;;5057451;28;20216;-64
2022/09/08 02:52:12;;;;;;;4.47;2.67;;;17.90;90.60;;;;;;5057799;28;20692;-64
2022/09/08 02:54:38;;;;;;;5.43;2.70;;;17.90;90.60;;;;;;5061249;28;20189;-65
2022/09/08 02:57:04;;;;;;;4.87;3.13;;;17.90;90.20;;;;;;5055147;28;20244;-65
2022/09/08 02:59:29;;;;;;;10.63;3.43;;;17.80;90.40;;;;;;5055790;28;20710;-65
2022/09/08 03:01:56;;;;;;;4.03;2.77;;;17.70;90.70;;;;;;5056578;28;20249;-65
2022/09/08 03:04:21;;;;;;;3.93;2.77;;;17.70;90.50;;;;;;5051291;28;20226;-65
2022/09/08 03:06:47;;;;;;;4.73;3.50;;;17.70;90.50;;;;;;5057100;28;20216;-64
2022/09/08 03:09:12;;;;;;;3.60;3.30;;;17.70;90.20;;;;;;5064605;28;20195;-65
2022/09/08 03:11:38;;;;;;;5.90;3.40;;;17.60;90.30;;;;;;5055914;28;20994;-64
2022/09/08 03:14:03;;;;;;;4.70;3.10;;;17.60;90.30;;;;;;5058792;28;20209;-64
2022/09/08 03:16:29;;;;;;;5.40;3.57;;;17.60;90.30;;;;;;5061329;28;20185;-65
2022/09/08 03:18:55;;;;;;;2.33;2.13;;;17.60;90.20;;;;;;5051195;28;20203;-65
2022/09/08 03:21:21;;;;;;;5.27;2.93;;;17.60;90.10;;;;;;5053638;28;20200;-65
2022/09/08 03:23:47;;;;;;;3.07;2.87;;;17.50;89.90;;;;;;5061352;28;20213;-64
2022/09/08 03:26:16;;;;;;;7.10;3.57;;;17.50;90.10;;;;;;5059783;28;20198;-64
2022/09/08 03:28:43;;;;;;;5.73;3.30;;;17.40;90.00;;;;;;5062375;28;20206;-63
2022/09/08 03:31:11;;;;;;;3.67;2.70;;;17.50;90.10;;;;;;5064259;28;20340;-63
2022/09/08 03:33:37;;;;;;;3.93;3.00;;;17.40;90.20;;;;;;5047887;28;20206;-64
2022/09/08 03:36:05;;;;;;;5.40;3.47;;;17.40;90.00;;;;;;5052502;28;20198;-64
2022/09/08 03:38:31;;;;;;;4.50;4.03;;;17.40;90.00;;;;;;5045704;28;20212;-64
2022/09/08 03:40:56;;;;;;;5.17;3.37;;;17.40;89.80;;;;;;5051188;28;20200;-64
2022/09/08 03:43:22;;;;;;;8.07;3.20;;;17.30;89.50;;;;;;5045417;28;21111;-64
2022/09/08 03:45:47;;;;;;;5.27;2.80;;;17.30;89.70;;;;;;5045522;28;20221;-64
2022/09/08 03:48:14;;;;;;;6.80;3.40;;;17.30;89.30;;;;;;5053374;28;20565;-65
2022/09/08 03:50:41;;;;;;;5.47;3.33;;;17.20;89.60;;;;;;5057096;28;20215;-65
2022/09/08 03:53:07;;;;;;;8.70;3.20;;;17.20;89.80;;;;;;5053466;28;20192;-63
2022/09/08 03:55:33;;;;;;;4.43;2.70;;;17.20;90.10;;;;;;5053002;28;20199;-64
2022/09/08 03:57:59;;;;;;;8.07;3.13;;;17.20;89.50;;;;;;5045292;28;20292;-63
2022/09/08 04:00:25;;;;;;;5.80;3.60;;;17.20;89.20;;;;;;5044941;28;20218;-72
2022/09/08 04:02:51;;;;;;;4.87;3.30;;;17.20;89.60;;;;;;5047748;28;20273;-64
2022/09/08 04:05:17;;;;;;;4.17;3.10;;;17.10;89.40;;;;;;5059866;28;20188;-65
2022/09/08 04:07:43;;;;;;;4.57;3.37;;;17.20;89.60;;;;;;5055329;28;20671;-64
2022/09/08 04:10:11;;;;;;;5.47;3.43;;;17.20;90.10;;;;;;5058822;28;20250;-64
2022/09/08 04:12:37;;;;;;;4.97;3.10;;;17.10;90.00;;;;;;5054956;28;20283;-66
2022/09/08 04:15:04;;;;;;;5.07;3.03;;;17.10;89.80;;;;;;5065316;28;20292;-64
2022/09/08 04:17:30;;;;;;;5.43;3.37;;;17.10;90.00;;;;;;5065563;28;20203;-64
2022/09/08 04:19:55;;;;;;;6.57;3.07;;;17.10;89.70;;;;;;5059542;28;20192;-65
2022/09/08 04:22:22;;;;;;;4.73;3.30;;;17.10;89.50;;;;;;5056097;28;20200;-65
2022/09/08 04:24:48;;;;;;;3.93;3.53;;;17.10;89.20;;;;;;5054667;28;20185;-67
2022/09/08 04:27:16;;;;;;;3.83;3.43;;;17.10;89.40;;;;;;5052683;28;20283;-67
2022/09/08 04:29:42;;;;;;;9.47;3.00;;;17.00;89.80;;;;;;5055366;28;20213;-65
2022/09/08 04:32:07;;;;;;;10.97;4.20;;;17.00;89.50;;;;;;5049859;28;20699;-64
2022/09/08 04:34:34;;;;;;;4.13;3.63;;;17.00;89.50;;;;;;5055373;28;20187;-64
2022/09/08 04:37:00;;;;;;;5.73;2.90;;;17.00;89.30;;;;;;5050580;28;20224;-65
2022/09/08 04:39:25;;;;;;;5.47;3.53;;;17.00;89.40;;;;;;5055147;28;20666;-64
2022/09/08 04:41:51;;;;;;;7.60;3.23;;;17.00;89.20;;;;;;5053076;28;20189;-63
2022/09/08 04:44:16;;;;;;;4.43;3.37;;;17.10;88.90;;;;;;5055726;28;20202;-63
2022/09/08 04:46:42;;;;;;;5.67;3.70;;;17.10;88.40;;;;;;5057577;28;20291;-64
2022/09/08 04:49:07;;;;;;;5.00;3.77;;;17.10;88.00;;;;;;5048599;28;20192;-63
2022/09/08 04:51:33;;;;;;;7.00;3.50;;;17.10;88.90;;;;;;5066403;28;20918;-67
2022/09/08 04:54:00;;;;;;;5.83;3.10;;;17.10;88.10;;;;;;5052830;28;20315;-64
2022/09/08 04:56:26;;;;;;;10.93;3.73;;;17.10;88.60;;;;;;5057558;28;20244;-64
2022/09/08 04:58:52;;;;;;;5.67;3.87;;;17.20;87.20;;;;;;5052884;28;20273;-64
2022/09/08 05:01:23;;;;;;;6.23;3.63;;;17.30;88.00;;;;;;5056317;28;20222;-64
2022/09/08 05:03:59;;;;;;;4.27;3.87;;;17.30;87.20;;;;;;5054757;28;20216;-64
2022/09/08 05:06:24;;;;;;;5.57;3.63;;;17.30;87.30;;;;;;5056357;28;20297;-64
2022/09/08 05:08:51;;;;;;;5.20;3.47;;;17.30;86.60;;;;;;5052908;28;20331;-65
2022/09/08 05:11:19;;;;;;;6.33;3.43;;;17.30;86.40;;;;;;5065539;28;20213;-65
2022/09/08 05:13:45;;;;;;;6.27;3.70;;;17.40;86.60;;;;;;5064453;28;20207;-64
2022/09/08 05:16:13;;;;;;;3.97;3.47;;;17.40;86.70;;;;;;5063362;28;20199;-64
2022/09/08 05:18:39;;;;;;;8.47;4.37;;;17.30;87.00;;;;;;5064252;28;20286;-64
2022/09/08 05:21:06;;;;;;;6.33;3.77;;;17.40;86.90;;;;;;5062377;28;20541;-65
2022/09/08 05:23:32;;;;;;;6.57;3.73;;;17.40;86.80;;;;;;5052251;28;20255;-65
2022/09/08 05:26:01;;;;;;;5.17;3.77;;;17.30;86.80;;;;;;5055033;28;20207;-64
2022/09/08 05:28:29;;;;;;;3.13;2.93;;;17.30;86.90;;;;;;5055160;28;20272;-64
2022/09/08 05:30:56;;;;;;;8.70;3.13;;;17.40;87.60;;;;;;5060916;28;20278;-64
2022/09/08 05:33:22;;;;;;;5.90;4.13;;;17.40;87.00;;;;;;5053817;28;20215;-65
2022/09/08 05:35:49;;;;;;;6.27;3.97;;;17.40;86.80;;;;;;5049092;28;20592;-65
2022/09/08 05:38:15;;;;;;;6.20;4.20;;;17.40;86.60;;;;;;5052397;28;20559;-65
2022/09/08 05:40:41;;;;;;;3.83;3.43;;;17.40;86.30;;;;;;5057611;28;20686;-64
2022/09/08 05:43:06;;;;;;;7.50;3.83;;;17.50;86.60;;;;;;5056134;28;20210;-64
2022/09/08 05:45:32;;;;;;;10.63;3.43;;;17.50;86.40;;;;;;5054788;28;20247;-64
2022/09/08 05:47:57;;;;;;;9.23;4.10;;;17.60;86.60;;;;;;5053108;28;20200;-65
2022/09/08 05:50:23;;;;;;;7.20;3.60;;;17.60;86.50;;;;;;5060410;28;20218;-65
2022/09/08 05:52:48;;;;;;;5.67;4.27;;;17.60;87.00;;;;;;5054119;28;20255;-62
2022/09/08 05:55:14;;;;;;;9.77;4.10;;;17.60;87.00;;;;;;5057506;28;20195;-64
2022/09/08 05:57:40;;;;;;;8.00;4.27;;;17.70;86.30;;;;;;5054905;28;20200;-64
2022/09/08 06:00:07;;;;;;;8.73;4.37;;;17.80;86.50;;;;;;5052676;28;20218;-64
2022/09/08 06:02:33;;;;;;;8.23;4.33;;;17.80;86.60;;;;;;5050700;28;20210;-64
2022/09/08 06:04:59;;;;;;;8.97;4.73;;;17.80;85.30;;;;;;5054995;28;20276;-64
2022/09/08 06:07:25;;;;;;;4.33;3.70;;;17.90;85.30;;;;;;5048600;28;20198;-65
2022/09/08 06:09:51;;;;;;;13.07;5.03;;;17.80;85.10;;;;;;5054744;28;20686;-65
2022/09/08 06:12:17;;;;;;;9.80;4.63;;;17.80;84.90;;;;;;5057870;28;20208;-65
2022/09/08 06:14:42;;;;;;;16.20;6.80;;;17.80;85.30;;;;;;5048021;28;20204;-65
2022/09/08 06:17:08;;;;;;;6.70;4.60;;;17.80;85.80;;;;;;5057690;28;20185;-65
2022/09/08 06:19:34;;;;;;;13.07;5.70;;;17.70;85.80;;;;;;5050941;28;20366;-65
2022/09/08 06:21:59;;;;;;;6.63;4.40;;;17.80;86.30;;;;;;5061344;28;20679;-65
2022/09/08 06:24:25;;;;;;;5.37;4.07;;;17.80;86.50;;;;;;5052051;28;20294;-65
2022/09/08 06:27:00;;;;;;;6.90;4.53;;;17.80;86.00;;;;;;5058333;28;20257;-65
2022/09/08 06:29:48;;;;;;;8.73;4.47;;;17.90;86.40;;;;;;5047324;28;20209;-65
2022/09/08 06:32:34;;;;;;;7.43;4.70;;;18.00;86.50;;;;;;5053220;28;20195;-64
2022/09/08 06:35:10;;;;;;;6.57;4.30;;;18.00;85.20;;;;;;5055741;28;20177;-66
2022/09/08 06:37:44;;;;;;;10.77;4.50;;;18.00;86.10;;;;;;5054446;28;20737;-65
2022/09/08 06:40:19;;;;;;;5.90;3.70;;;18.00;85.60;;;;;;5056771;28;20235;-65
2022/09/08 06:42:55;;;;;;;11.33;4.23;;;18.00;85.50;;;;;;5058304;28;20550;-65
2022/09/08 06:45:36;;;;;;;7.93;4.37;;;18.00;85.90;;;;;;5050167;28;20267;-68
2022/09/08 06:48:32;;;;;;;5.87;3.90;;;18.10;85.90;;;;;;5053605;28;20203;-64
2022/09/08 06:51:05;;;;;;;9.13;4.73;;;18.10;85.60;;;;;;5060753;28;20210;-64
2022/09/08 06:53:38;;;;;;;10.87;5.70;;;18.10;85.40;;;;;;5051215;28;20232;-66
2022/09/08 06:56:21;;;;;;;7.37;4.50;;;18.10;85.50;;;;;;5054711;28;20193;-65
2022/09/08 06:58:47;;;;;;;6.93;4.60;;;18.10;85.30;;;;;;5017590;28;993760;-65
2022/09/08 07:01:33;;;;;;;9.63;4.67;;;18.10;85.70;;;;;;5056208;28;20290;-68
2022/09/08 07:04:29;;;;;;;8.63;3.90;;;18.10;85.70;;;;;;5039805;28;20206;-63
2022/09/08 07:07:04;;;;;;;11.17;4.53;;;18.10;86.30;;;;;;5056740;28;20706;-64
2022/09/08 07:09:51;;;;;;;11.73;5.90;;;18.10;86.90;;;;;;5052001;28;20568;-65
2022/09/08 07:12:44;;;;;;;5.83;4.30;;;18.20;87.00;;;;;;5053905;28;20204;-64
2022/09/08 07:15:28;;;;;;;5.30;4.20;;;18.30;85.90;;;;;;5052640;28;20325;-64
2022/09/08 07:17:59;;;;;;;8.63;4.53;;;18.40;85.60;;;;;;5054946;28;20526;-64
2022/09/08 07:20:27;;;;;;;7.97;5.67;;;18.40;85.80;;;;;;5044855;28;20186;-64
2022/09/08 07:23:05;;;;;;;5.57;4.43;;;18.40;86.00;;;;;;5053601;28;20226;-64
2022/09/08 07:25:42;;;;;;;8.60;4.77;;;18.40;86.10;;;;;;5049756;28;20195;-64
2022/09/08 07:28:19;;;;;;;4.23;3.80;;;18.40;86.40;;;;;;5046631;28;20208;-64
2022/09/08 07:30:57;;;;;;;6.13;3.87;;;18.50;86.90;;;;;;5051664;28;20273;-65
2022/09/08 07:33:31;;;;;;;5.63;4.73;;;18.60;86.70;;;;;;5050671;28;20294;-65
2022/09/08 07:36:10;;;;;;;7.17;4.53;;;18.60;86.50;;;;;;5059166;28;20719;-65
2022/09/08 07:38:44;;;;;;;5.47;4.97;;;18.70;86.40;;;;;;5049682;28;20207;-65
2022/09/08 07:41:21;;;;;;;8.07;4.87;;;18.80;86.80;;;;;;5051343;28;20597;-65
2022/09/08 07:43:50;;;;;;;4.97;4.40;;;18.90;86.70;;;;;;5051590;28;20218;-65
2022/09/08 07:46:59;;;;;;;6.80;3.93;;;18.90;86.70;;;;;;5050588;28;20196;-64
2022/09/08 07:50:09;;;;;;;7.30;3.73;;;18.90;86.70;;;;;;5010535;28;20216;-64
2022/09/08 07:53:03;;;;;;;6.47;4.73;;;19.00;86.60;;;;;;5055911;28;20192;-64
2022/09/08 07:55:38;;;;;;;8.17;5.13;;;19.10;86.30;;;;;;5052813;28;20225;-72
2022/09/08 07:58:19;;;;;;;6.53;5.20;;;19.10;87.70;;;;;;5049991;28;20568;-66
2022/09/08 08:01:00;;;;;;;10.00;5.97;;;19.00;88.10;;;;;;5056481;28;20667;-66
2022/09/08 08:03:31;;;;;;;7.53;5.60;;;19.00;89.10;;;;;;5051065;28;20558;-66
2022/09/08 08:06:10;;;;;;;6.87;4.83;;;19.00;89.30;;;;;;5055538;28;20189;-67
2022/09/08 08:08:50;;;;;;;7.83;4.70;;;19.00;88.80;;;;;;5050988;28;20212;-69
2022/09/08 08:11:28;;;;;;;9.00;4.70;;;19.00;89.00;;;;;;5052730;28;20566;-68
2022/09/08 08:14:28;;;;;;;7.47;6.10;;;18.90;88.90;;;;;;5049881;28;20204;-67
2022/09/08 08:17:11;;;;;;;8.27;5.20;;;18.90;90.30;;;;;;5052719;28;21326;-69
2022/09/08 08:19:55;;;;;;;8.50;4.97;;;18.80;90.70;;;;;;5051271;28;20197;-68
2022/09/08 08:22:46;;;;;;;10.73;5.40;;;18.80;91.30;;;;;;5053714;28;20643;-71
2022/09/08 08:25:28;;;;;;;8.67;5.40;;;18.90;91.20;;;;;;5054601;28;20556;-70
2022/09/08 08:28:10;;;;;;;7.60;5.57;;;18.90;90.60;;;;;;5053758;28;20272;-67
2022/09/08 08:31:22;;;;;;;8.47;4.73;;;19.00;90.70;;;;;;5050791;28;20777;-70
2022/09/08 08:33:51;;;;;;;7.07;5.33;;;19.00;91.20;;;;;;5002817;28;20216;-70
2022/09/08 08:36:21;;;;;;;7.60;4.63;;;19.10;90.40;;;;;;5046255;28;20275;-70
2022/09/08 08:38:52;;;;;;;6.00;5.13;;;19.10;90.30;;;;;;5048436;28;20385;-70
2022/09/08 08:41:47;;;;;;;6.83;5.07;;;19.10;90.20;;;;;;5047677;28;20521;-69
2022/09/08 08:44:41;;;;;;;10.10;5.10;;;19.10;90.00;;;;;;5054039;28;20218;-72
2022/09/08 08:47:35;;;;;;;16.77;6.33;;;19.10;90.10;;;;;;5046538;28;20207;-72
2022/09/08 08:50:20;;;;;;;41.63;11.20;;;19.10;92.10;;;;;;5052592;28;20813;-70
2022/09/08 08:53:24;;;;;;;17.97;7.67;;;18.90;99.90;;;;;;5057769;28;20191;-70
2022/09/08 08:56:17;;;;;;;13.10;7.33;;;18.60;99.90;;;;;;5009327;28;20248;-70
2022/09/08 08:59:11;;;;;;;11.40;6.63;;;18.20;99.90;;;;;;5055431;28;20693;-69
2022/09/08 09:01:54;;;;;;;10.47;7.13;;;17.90;99.90;;;;;;5054332;28;20280;-70
2022/09/08 09:04:53;;;;;;;9.30;6.60;;;17.60;99.90;;;;;;5049412;28;20212;-69
2022/09/08 09:07:44;;;;;;;11.23;6.53;;;17.60;99.90;;;;;;5047103;28;20187;-71
2022/09/08 09:10:40;;;;;;;10.90;6.30;;;17.60;99.90;;;;;;5058369;28;20234;-70
2022/09/08 09:13:34;;;;;;;9.87;5.87;;;17.60;99.90;;;;;;5055631;28;20731;-75
2022/09/08 09:16:30;;;;;;;9.23;6.37;;;17.60;99.90;;;;;;5046899;28;20264;-69
2022/09/08 09:19:14;;;;;;;7.30;6.40;;;17.70;99.90;;;;;;5051759;28;20573;-70
2022/09/08 09:22:08;;;;;;;9.13;6.33;;;17.70;99.90;;;;;;5065336;28;20190;-69
2022/09/08 09:24:44;;;;;;;7.77;6.97;;;17.80;99.90;;;;;;5057549;28;20214;-69
2022/09/08 09:27:42;;;;;;;9.30;7.40;;;17.90;99.90;;;;;;5052450;28;20185;-68
2022/09/08 09:30:29;;;;;;;7.50;6.67;;;17.90;99.90;;;;;;5050736;28;20207;-69
2022/09/08 09:33:15;;;;;;;7.87;7.10;;;18.10;99.90;;;;;;5054649;28;20206;-69
2022/09/08 09:35:52;;;;;;;12.27;7.50;;;18.00;99.90;;;;;;5054182;28;20614;-71
2022/09/08 09:38:40;;;;;;;10.77;6.57;;;18.00;99.90;;;;;;5055905;28;20180;-68
2022/09/08 09:41:23;;;;;;;11.33;7.10;;;18.00;99.90;;;;;;5056110;28;20184;-69
2022/09/08 09:43:57;;;;;;;9.57;7.13;;;17.90;99.90;;;;;;5052909;28;20296;-68
2022/09/08 09:46:39;;;;;;;11.23;7.57;;;17.70;99.90;;;;;;5054113;28;20191;-80
2022/09/08 09:49:33;;;;;;;11.43;6.83;;;17.70;99.90;;;;;;5051563;28;20218;-67
2022/09/08 09:52:11;;;;;;;10.30;6.73;;;17.50;99.90;;;;;;5054927;28;20284;-67
2022/09/08 09:54:54;;;;;;;11.77;7.03;;;17.40;99.90;;;;;;5059183;28;20299;-68
2022/09/08 09:57:52;;;;;;;8.00;7.10;;;17.50;99.90;;;;;;5049157;28;20220;-67
2022/09/08 10:00:19;;;;;;;8.53;7.73;;;17.50;99.90;;;;;;5056189;28;20690;-65
2022/09/08 10:03:13;;;;;;;9.30;7.50;;;17.60;99.90;;;;;;5052572;28;20203;-67
2022/09/08 10:06:13;;;;;;;10.17;7.83;;;17.60;99.90;;;;;;5057997;28;20188;-66
2022/09/08 10:09:06;;;;;;;7.90;7.10;;;17.60;99.90;;;;;;5047016;28;20204;-69
2022/09/08 10:11:58;;;;;;;8.63;7.73;;;17.80;99.90;;;;;;5052692;28;20240;-67
2022/09/08 10:14:50;;;;;;;11.87;7.90;;;17.90;99.90;;;;;;5048933;28;20308;-68
2022/09/08 10:17:42;;;;;;;14.97;9.17;;;18.00;99.90;;;;;;5063390;28;20179;-69
2022/09/08 10:20:37;;;;;;;11.77;8.20;;;18.00;99.90;;;;;;5046254;28;20209;-69
2022/09/08 10:23:40;;;;;;;10.17;8.63;;;18.00;99.90;;;;;;5052584;28;20250;-69
2022/09/08 10:26:23;;;;;;;10.87;7.47;;;18.00;99.90;;;;;;5057265;28;20729;-69
2022/09/08 10:29:01;;;;;;;12.37;9.10;;;17.90;99.90;;;;;;5057483;28;20212;-72
2022/09/08 10:31:58;;;;;;;16.97;9.73;;;17.90;99.90;;;;;;5055437;28;20223;-69
2022/09/08 10:34:57;;;;;;;9.37;8.23;;;17.90;99.90;;;;;;5051755;28;20225;-69
2022/09/08 10:37:50;;;;;;;11.63;9.57;;;17.80;99.90;;;;;;5050013;28;20563;-70
2022/09/08 10:40:25;;;;;;;13.27;9.87;;;17.60;99.90;;;;;;5043211;28;20283;-72
2022/09/08 10:42:53;;;;;;;12.10;9.23;;;17.50;99.90;;;;;;5059247;28;20274;-73
2022/09/08 10:46:02;;;;;;;14.07;9.13;;;17.40;99.90;;;;;;5046168;28;20249;-73
2022/09/08 10:48:58;;;;;;;12.37;9.00;;;17.20;99.90;;;;;;5023089;28;20206;-71
2022/09/08 10:51:39;;;;;;;11.37;8.50;;;16.90;99.90;;;;;;5058097;28;20202;-69
2022/09/08 10:54:34;;;;;;;15.73;10.17;;;16.70;99.90;;;;;;5050655;28;20349;-74
2022/09/08 10:57:01;;;;;;;12.03;9.67;;;16.50;99.90;;;;;;5064139;28;20209;-67
2022/09/08 10:59:57;;;;;;;12.63;9.27;;;16.40;99.90;;;;;;5066511;28;20976;-68
2022/09/08 11:02:40;;;;;;;15.67;9.63;;;16.50;99.90;;;;;;5052839;28;20193;-71
2022/09/08 11:05:33;;;;;;;11.37;8.87;;;16.50;99.90;;;;;;5045156;28;20214;-70
2022/09/08 11:08:24;;;;;;;15.07;9.23;;;16.60;99.90;;;;;;5064218;28;20202;-70
2022/09/08 11:11:20;;;;;;;11.67;9.50;;;16.70;99.90;;;;;;5053064;28;20222;-70
2022/09/08 11:14:00;;;;;;;14.67;9.43;;;16.80;99.90;;;;;;5054795;28;20282;-70
2022/09/08 11:16:57;;;;;;;14.03;9.83;;;16.90;99.90;;;;;;5054858;28;20625;-70
2022/09/08 11:19:46;;;;;;;12.20;10.37;;;16.90;99.90;;;;;;5053435;28;20202;-71
2022/09/08 11:22:42;;;;;;;15.43;10.40;;;17.00;99.90;;;;;;5057961;28;20226;-70
2022/09/08 11:25:41;;;;;;;13.47;9.63;;;17.00;99.90;;;;;;5051385;28;20315;-70
2022/09/08 11:28:31;;;;;;;10.47;9.27;;;17.10;99.90;;;;;;5054615;28;20203;-74
2022/09/08 11:31:12;;;;;;;14.23;9.97;;;17.10;99.90;;;;;;5048866;28;20215;-69
2022/09/08 11:34:09;;;;;;;17.30;10.57;;;17.10;99.90;;;;;;5053511;28;20250;-70
2022/09/08 11:37:08;;;;;;;12.83;10.37;;;17.20;99.90;;;;;;5046738;28;20658;-70
2022/09/08 11:39:59;;;;;;;13.17;10.13;;;17.30;99.90;;;;;;5050722;28;20199;-71
2022/09/08 11:42:59;;;;;;;14.87;10.40;;;17.40;99.90;;;;;;5054500;28;20167;-71
2022/09/08 11:45:40;;;;;;;13.80;11.23;;;17.40;99.90;;;;;;5053814;28;20209;-69
2022/09/08 11:48:28;;;;;;;17.23;10.27;;;17.30;99.90;;;;;;5044693;28;20196;-70
2022/09/08 11:51:10;;;;;;;13.93;11.10;;;17.30;99.90;;;;;;5052254;28;20576;-71
2022/09/08 11:53:45;;;;;;;13.30;11.77;;;17.30;99.90;;;;;;5056570;28;20256;-69
2022/09/08 11:56:26;;;;;;;12.23;10.97;;;17.40;99.90;;;;;;5048931;28;20215;-70
2022/09/08 11:59:17;;;;;;;15.87;11.77;;;17.40;99.90;;;;;;5050617;28;20224;-70
2022/09/08 12:02:31;;;;;;;11.50;10.30;;;17.50;99.90;;;;;;5054177;28;20553;-70
2022/09/08 12:05:13;;;;;;;12.40;10.30;;;17.60;99.90;;;;;;5046480;28;20263;-70
2022/09/08 12:07:50;;;;;;;13.97;11.50;;;17.80;99.90;;;;;;5052269;28;20195;-71
2022/09/08 12:10:54;;;;;;;12.23;10.43;;;17.90;99.90;;;;;;5054254;28;20227;-70
2022/09/08 12:13:45;;;;;;;15.87;12.23;;;18.10;99.90;;;;;;5049894;28;20219;-69
2022/09/08 12:16:33;;;;;;;17.50;12.73;;;18.20;99.90;;;;;;5050602;28;20181;-69
2022/09/08 12:19:28;;;;;;;14.57;12.10;;;18.40;99.90;;;;;;5032464;28;20295;-70
2022/09/08 12:22:15;;;;;;;15.20;10.90;;;18.60;99.90;;;;;;5030024;28;20210;-69
2022/09/08 12:24:56;;;;;;;17.47;10.83;;;18.60;99.90;;;;;;5054884;28;20198;-68
2022/09/08 12:27:54;;;;;;;13.53;10.70;;;18.60;99.90;;;;;;5057280;28;20203;-69
2022/09/08 12:30:21;;;;;;;13.53;10.50;;;18.60;99.90;;;;;;5052358;28;20219;-68
2022/09/08 12:33:08;;;;;;;13.93;11.03;;;18.50;99.90;;;;;;5050200;28;20248;-69
2022/09/08 12:36:00;;;;;;;12.70;10.10;;;18.40;99.90;;;;;;5059259;28;20205;-68
2022/09/08 12:38:59;;;;;;;11.40;10.20;;;18.40;99.90;;;;;;5058194;28;20201;-70
2022/09/08 12:41:50;;;;;;;12.47;10.83;;;18.40;99.90;;;;;;5051764;28;20551;-67
2022/09/08 12:44:31;;;;;;;15.63;11.53;;;18.40;99.90;;;;;;5056594;28;20568;-68
2022/09/08 12:47:30;;;;;;;13.43;10.97;;;18.50;99.90;;;;;;5053951;28;20635;-68
2022/09/08 12:50:20;;;;;;;16.47;10.47;;;18.70;99.90;;;;;;5043873;28;20275;-72
2022/09/08 12:53:31;;;;;;;17.93;12.17;;;18.80;99.90;;;;;;5054446;28;20559;-68
2022/09/08 12:56:10;;;;;;;11.50;10.17;;;19.00;99.90;;;;;;5051991;28;20205;-67
2022/09/08 12:59:13;;;;;;;13.43;10.97;;;19.00;99.90;;;;;;5057065;28;20224;-69
2022/09/08 13:01:50;;;;;;;12.93;10.50;;;18.90;99.90;;;;;;5062358;28;20238;-67
2022/09/08 13:04:40;;;;;;;13.13;11.50;;;19.00;99.90;;;;;;5053846;28;20203;-63
2022/09/08 13:07:27;;;;;;;14.13;10.80;;;19.10;99.90;;;;;;5055858;28;20225;-67
2022/09/08 13:10:12;;;;;;;11.60;10.10;;;19.20;99.90;;;;;;5053338;28;20244;-69
2022/09/08 13:12:49;;;;;;;14.87;10.40;;;19.20;99.90;;;;;;5059703;28;20182;-69
2022/09/08 13:15:29;;;;;;;10.87;9.87;;;19.30;99.90;;;;;;5054970;28;20261;-69
2022/09/08 13:18:08;;;;;;;14.57;10.37;;;19.30;99.90;;;;;;5057261;28;20196;-69
2022/09/08 13:20:42;;;;;;;15.30;12.57;;;19.30;99.90;;;;;;5056135;28;20202;-69
2022/09/08 13:23:39;;;;;;;13.93;10.70;;;19.40;99.90;;;;;;5056834;28;20199;-69
2022/09/08 13:26:35;;;;;;;16.03;12.43;;;19.40;99.90;;;;;;5057124;28;20325;-66
2022/09/08 13:29:42;;;;;;;15.77;11.17;;;19.50;99.90;;;;;;5054037;28;20305;-71
2022/09/08 13:32:39;;;;;;;13.17;11.77;;;19.50;99.90;;;;;;5055725;28;20193;-70
2022/09/08 13:35:32;;;;;;;15.27;11.07;;;19.50;99.90;;;;;;5056307;28;20201;-67
2022/09/08 13:38:21;;;;;;;16.83;11.07;;;19.50;99.90;;;;;;5057648;28;20660;-68